METAR Data
IDs: Format: Raw Decoded Include TAF

Data at: 1157 UTC 16 Oct 2018

PFNO 161156Z AUTO 03006KT 10SM CLR 00/M05 A2946 RMK AO2 SLP978 T00001050 10011 20000 58021 FZRANO
PFNO 161056Z AUTO 05010KT 10SM SCT120 01/M05 A2949 RMK AO2 SLP985 T00111050 FZRANO
PFNO 160956Z AUTO 06008KT 10SM OVC100 01/M05 A2951 RMK AO2 SLP993 T00111050 FZRANO
PFNO 160856Z AUTO 07011KT 10SM OVC100 01/M04 A2953 RMK AO2 SLP999 T00111044 400221028 58016 FZRANO
PFNO 160756Z AUTO 06011KT 10SM BKN110 01/M04 A2955 RMK AO2 SLP006 T00061044 FZRANO
PFNO 160656Z AUTO 04008KT 10SM CLR 01/M04 A2957 RMK AO2 SLP013 T00061044 FZRANO
PFNO 160556Z AUTO 06012KT 10SM CLR 01/M04 A2957 RMK AO2 SLP014 T00061039 10022 20006 56024 FZRANO
PFNO 160456Z AUTO 06011KT 10SM FEW120 01/M03 A2959 RMK AO2 SLP020 T00111033 FZRANO
PFNO 160356Z AUTO 06010KT 10SM CLR 01/M03 A2962 RMK AO2 SLP029 T00111033 FZRANO
PFNO 160256Z AUTO 05012KT 10SM CLR 02/M03 A2964 RMK AO2 SLP038 T00171033 58026 FZRANO
PFNO 160156Z AUTO 04009KT 10SM CLR 02/M03 A2967 RMK AO2 SLP047 T00221028 FZRANO
PFNO 160056Z AUTO 04008KT 10SM CLR 02/M02 A2970 RMK AO2 SLP057 T00221017 FZRANO
PFNO 152356Z AUTO 06011KT 10SM CLR 02/M02 A2972 RMK AO2 SLP064 T00171017 10022 21028 58027 FZRANO
PFNO 152256Z AUTO 07012KT 10SM CLR 02/M02 A2975 RMK AO2 SLP075 T00171017 FZRANO
PFNO 152156Z AUTO 07009KT 10SM CLR 01/M02 A2978 RMK AO2 SLP085 T00111022 FZRANO
PFNO 152056Z AUTO 06013KT 10SM CLR 01/M03 A2980 RMK AO2 SLP091 T00061028 56008 FZRANO
PFNO 151956Z AUTO 08016KT 10SM CLR M01/M03 A2980 RMK AO2 SLP093 T10061028 FZRANO
PFNO 151856Z AUTO 05014KT 10SM CLR M02/M03 A2981 RMK AO2 SLP097 T10171033 FZRANO
PFNO 151756Z AUTO 06013KT 10SM CLR M03/M04 A2982 RMK AO2 SLP099 T10281039 11006 21028 50000 FZRANO
PFNO 151656Z AUTO 06014KT 10SM CLR M02/M03 A2982 RMK AO2 SLP100 T10221033 FZRANO
PFNO 151556Z AUTO 08015KT 10SM CLR M02/M03 A2982 RMK AO2 SLP100 T10171028 FZRANO
PFNO 151456Z AUTO 06014KT 10SM CLR M02/M03 A2982 RMK AO2 SLP099 T10221028 58012 FZRANO
PFNO 151356Z AUTO 07015KT 10SM CLR M01/M02 A2983 RMK AO2 SLP103 T10111022 FZRANO
PFNO 151256Z AUTO 06014KT 10SM CLR M01/M02 A2985 RMK AO2 SLP109 T10111022 FZRANO
PFNO 151156Z AUTO 07016KT 10SM CLR M01/M02 A2986 RMK AO2 SLP111 T10061017 10022 21006 56004 FZRANO
PFNO 151056Z AUTO 07013KT 10SM CLR 00/M01 A2986 RMK AO2 SLP112 T00001011 FZRANO
PFNO 150956Z AUTO 07010KT 10SM CLR M01/M01 A2986 RMK AO2 SLP113 T10061011 FZRANO
PFNO 150856Z AUTO 07009KT 10SM CLR 00/M01 A2987 RMK AO2 SLP115 T00001006 400500000 53004 FZRANO
PFNO 150756Z AUTO 07008KT 10SM CLR 01/M01 A2986 RMK AO2 SLP113 T00061006 FZRANO
PFNO 150656Z AUTO 07011KT 10SM BKN065 01/M01 A2986 RMK AO2 SLP111 T00111006 FZRANO
PFNO 150556Z AUTO 07011KT 10SM OVC065 02/00 A2986 RMK AO2 SLP111 T00220000 10044 20017 53002 FZRANO
PFNO 150456Z AUTO 06011KT 10SM OVC065 02/00 A2985 RMK AO2 SLP108 T00170000 FZRANO
PFNO 150356Z AUTO 06012KT 10SM OVC065 03/00 A2985 RMK AO2 SLP108 T00330000
PFNO 150256Z AUTO 07012KT 10SM OVC065 03/01 A2985 RMK AO2 SLP108 T00330011 55004
PFNO 150156Z AUTO 07010KT 10SM OVC065 04/01 A2985 RMK AO2 SLP108 T00390011
PFNO 150056Z AUTO 06010KT 10SM OVC070 04/02 A2985 RMK AO2 SLP110 T00440017